sensor_id;sensor_type;location;lat;lon;timestamp;P1;durP1;ratioP1;P2;durP2;ratioP2
41952;SDS011;63613;28.200;112.870;2023-12-20T00:02:16;56.90;;;37.42;;
41952;SDS011;63613;28.200;112.870;2023-12-20T00:04:45;58.75;;;38.15;;
41952;SDS011;63613;28.200;112.870;2023-12-20T00:07:15;62.78;;;39.92;;
41952;SDS011;63613;28.200;112.870;2023-12-20T00:09:44;59.15;;;38.13;;
41952;SDS011;63613;28.200;112.870;2023-12-20T00:12:13;55.33;;;36.72;;
41952;SDS011;63613;28.200;112.870;2023-12-20T00:14:42;56.15;;;37.60;;
41952;SDS011;63613;28.200;112.870;2023-12-20T00:17:13;57.50;;;39.00;;
41952;SDS011;63613;28.200;112.870;2023-12-20T00:19:42;59.85;;;40.50;;
41952;SDS011;63613;28.200;112.870;2023-12-20T00:22:11;54.53;;;35.20;;
41952;SDS011;63613;28.200;112.870;2023-12-20T00:24:41;56.15;;;37.30;;
41952;SDS011;63613;28.200;112.870;2023-12-20T00:27:10;55.53;;;37.85;;
41952;SDS011;63613;28.200;112.870;2023-12-20T00:29:40;60.33;;;38.17;;
41952;SDS011;63613;28.200;112.870;2023-12-20T00:34:41;55.85;;;36.75;;
41952;SDS011;63613;28.200;112.870;2023-12-20T00:37:11;57.80;;;38.15;;
41952;SDS011;63613;28.200;112.870;2023-12-20T00:39:41;57.47;;;37.33;;
41952;SDS011;63613;28.200;112.870;2023-12-20T00:42:10;57.65;;;37.58;;
41952;SDS011;63613;28.200;112.870;2023-12-20T00:44:39;62.10;;;40.00;;
41952;SDS011;63613;28.200;112.870;2023-12-20T00:47:08;57.20;;;37.50;;
41952;SDS011;63613;28.200;112.870;2023-12-20T00:49:37;59.95;;;39.03;;
41952;SDS011;63613;28.200;112.870;2023-12-20T00:52:08;60.78;;;40.65;;
41952;SDS011;63613;28.200;112.870;2023-12-20T00:54:37;58.08;;;38.28;;
41952;SDS011;63613;28.200;112.870;2023-12-20T00:57:06;60.08;;;38.60;;
41952;SDS011;63613;28.200;112.870;2023-12-20T00:59:35;51.65;;;35.78;;
41952;SDS011;63613;28.200;112.870;2023-12-20T01:02:24;62.70;;;38.90;;
41952;SDS011;63613;28.200;112.870;2023-12-20T01:04:53;60.47;;;39.35;;
41952;SDS011;63613;28.200;112.870;2023-12-20T01:07:22;57.97;;;36.85;;
41952;SDS011;63613;28.200;112.870;2023-12-20T01:09:51;58.00;;;37.50;;
41952;SDS011;63613;28.200;112.870;2023-12-20T01:12:21;61.88;;;38.50;;
41952;SDS011;63613;28.200;112.870;2023-12-20T01:14:52;59.97;;;37.13;;
41952;SDS011;63613;28.200;112.870;2023-12-20T01:17:21;55.95;;;36.58;;
41952;SDS011;63613;28.200;112.870;2023-12-20T01:19:50;59.08;;;38.95;;
41952;SDS011;63613;28.200;112.870;2023-12-20T01:22:20;60.00;;;38.75;;
41952;SDS011;63613;28.200;112.870;2023-12-20T01:24:49;57.20;;;37.50;;
41952;SDS011;63613;28.200;112.870;2023-12-20T01:27:19;53.08;;;35.50;;
41952;SDS011;63613;28.200;112.870;2023-12-20T01:29:48;61.40;;;38.47;;
41952;SDS011;63613;28.200;112.870;2023-12-20T01:32:17;58.10;;;40.72;;
41952;SDS011;63613;28.200;112.870;2023-12-20T01:34:46;56.97;;;36.13;;
41952;SDS011;63613;28.200;112.870;2023-12-20T01:37:16;58.45;;;36.88;;
41952;SDS011;63613;28.200;112.870;2023-12-20T01:39:47;51.50;;;35.55;;
41952;SDS011;63613;28.200;112.870;2023-12-20T01:43:01;55.25;;;37.40;;
41952;SDS011;63613;28.200;112.870;2023-12-20T01:45:34;61.78;;;37.45;;
41952;SDS011;63613;28.200;112.870;2023-12-20T01:48:03;57.45;;;36.67;;
41952;SDS011;63613;28.200;112.870;2023-12-20T01:50:36;54.90;;;37.28;;
41952;SDS011;63613;28.200;112.870;2023-12-20T01:53:05;61.85;;;38.78;;
41952;SDS011;63613;28.200;112.870;2023-12-20T01:55:36;64.20;;;37.75;;
41952;SDS011;63613;28.200;112.870;2023-12-20T01:58:08;60.08;;;39.17;;
41952;SDS011;63613;28.200;112.870;2023-12-20T02:00:40;61.50;;;40.38;;
41952;SDS011;63613;28.200;112.870;2023-12-20T02:03:09;64.20;;;40.78;;
41952;SDS011;63613;28.200;112.870;2023-12-20T02:05:39;65.68;;;40.63;;
41952;SDS011;63613;28.200;112.870;2023-12-20T02:08:09;62.00;;;37.97;;
41952;SDS011;63613;28.200;112.870;2023-12-20T02:10:40;59.92;;;40.13;;
41952;SDS011;63613;28.200;112.870;2023-12-20T02:13:11;63.75;;;38.67;;
41952;SDS011;63613;28.200;112.870;2023-12-20T02:15:41;63.42;;;40.90;;
41952;SDS011;63613;28.200;112.870;2023-12-20T02:18:10;63.88;;;38.83;;
41952;SDS011;63613;28.200;112.870;2023-12-20T02:20:42;58.65;;;39.55;;
41952;SDS011;63613;28.200;112.870;2023-12-20T02:23:13;62.45;;;39.63;;
41952;SDS011;63613;28.200;112.870;2023-12-20T02:25:42;58.78;;;38.95;;
41952;SDS011;63613;28.200;112.870;2023-12-20T02:28:12;64.55;;;41.97;;
41952;SDS011;63613;28.200;112.870;2023-12-20T02:30:41;62.13;;;40.35;;
41952;SDS011;63613;28.200;112.870;2023-12-20T02:33:12;61.08;;;40.47;;
41952;SDS011;63613;28.200;112.870;2023-12-20T02:35:41;62.83;;;40.70;;
41952;SDS011;63613;28.200;112.870;2023-12-20T02:38:10;59.42;;;38.67;;
41952;SDS011;63613;28.200;112.870;2023-12-20T02:40:39;60.92;;;39.15;;
41952;SDS011;63613;28.200;112.870;2023-12-20T02:43:09;59.45;;;38.97;;
41952;SDS011;63613;28.200;112.870;2023-12-20T02:45:39;56.53;;;37.35;;
41952;SDS011;63613;28.200;112.870;2023-12-20T02:48:08;61.08;;;38.22;;
41952;SDS011;63613;28.200;112.870;2023-12-20T02:50:38;54.85;;;36.25;;
41952;SDS011;63613;28.200;112.870;2023-12-20T02:53:07;55.10;;;36.85;;
41952;SDS011;63613;28.200;112.870;2023-12-20T02:55:37;52.03;;;35.67;;
41952;SDS011;63613;28.200;112.870;2023-12-20T02:58:07;56.83;;;35.67;;
41952;SDS011;63613;28.200;112.870;2023-12-20T03:00:36;53.20;;;34.35;;
41952;SDS011;63613;28.200;112.870;2023-12-20T03:03:06;56.30;;;36.00;;
41952;SDS011;63613;28.200;112.870;2023-12-20T03:05:36;52.28;;;34.42;;
41952;SDS011;63613;28.200;112.870;2023-12-20T03:08:05;53.05;;;34.67;;
41952;SDS011;63613;28.200;112.870;2023-12-20T03:10:35;46.63;;;32.92;;
41952;SDS011;63613;28.200;112.870;2023-12-20T03:13:04;47.00;;;31.27;;
41952;SDS011;63613;28.200;112.870;2023-12-20T03:15:33;48.15;;;32.47;;
41952;SDS011;63613;28.200;112.870;2023-12-20T03:18:03;52.22;;;32.45;;
41952;SDS011;63613;28.200;112.870;2023-12-20T03:20:32;45.22;;;30.17;;
41952;SDS011;63613;28.200;112.870;2023-12-20T03:23:03;44.85;;;30.70;;
41952;SDS011;63613;28.200;112.870;2023-12-20T03:25:36;46.70;;;31.27;;
41952;SDS011;63613;28.200;112.870;2023-12-20T03:28:05;47.20;;;30.05;;
41952;SDS011;63613;28.200;112.870;2023-12-20T03:30:56;44.85;;;29.20;;
41952;SDS011;63613;28.200;112.870;2023-12-20T03:33:25;44.42;;;28.00;;
41952;SDS011;63613;28.200;112.870;2023-12-20T03:35:55;41.90;;;27.83;;
41952;SDS011;63613;28.200;112.870;2023-12-20T03:38:25;42.25;;;28.50;;
41952;SDS011;63613;28.200;112.870;2023-12-20T03:41:13;42.08;;;26.85;;
41952;SDS011;63613;28.200;112.870;2023-12-20T03:43:46;40.05;;;26.08;;
41952;SDS011;63613;28.200;112.870;2023-12-20T03:46:16;39.88;;;26.73;;
41952;SDS011;63613;28.200;112.870;2023-12-20T03:48:45;40.58;;;25.77;;
41952;SDS011;63613;28.200;112.870;2023-12-20T03:51:14;40.58;;;25.80;;
41952;SDS011;63613;28.200;112.870;2023-12-20T03:53:43;38.85;;;25.92;;
41952;SDS011;63613;28.200;112.870;2023-12-20T03:56:12;35.30;;;24.15;;
41952;SDS011;63613;28.200;112.870;2023-12-20T03:58:43;37.25;;;24.08;;
41952;SDS011;63613;28.200;112.870;2023-12-20T04:01:12;36.63;;;23.65;;
41952;SDS011;63613;28.200;112.870;2023-12-20T04:03:41;37.28;;;24.02;;
41952;SDS011;63613;28.200;112.870;2023-12-20T04:06:16;33.78;;;23.70;;
41952;SDS011;63613;28.200;112.870;2023-12-20T04:08:50;33.22;;;22.92;;
41952;SDS011;63613;28.200;112.870;2023-12-20T04:11:36;34.63;;;22.50;;
41952;SDS011;63613;28.200;112.870;2023-12-20T04:14:05;34.08;;;21.58;;
41952;SDS011;63613;28.200;112.870;2023-12-20T04:19:28;35.92;;;22.90;;
41952;SDS011;63613;28.200;112.870;2023-12-20T04:21:57;34.10;;;21.92;;
41952;SDS011;63613;28.200;112.870;2023-12-20T04:24:48;30.77;;;20.27;;
41952;SDS011;63613;28.200;112.870;2023-12-20T04:27:19;31.85;;;21.27;;
41952;SDS011;63613;28.200;112.870;2023-12-20T04:29:49;34.00;;;21.42;;
41952;SDS011;63613;28.200;112.870;2023-12-20T04:32:19;33.95;;;21.42;;
41952;SDS011;63613;28.200;112.870;2023-12-20T04:34:48;35.85;;;22.58;;
41952;SDS011;63613;28.200;112.870;2023-12-20T04:37:17;32.60;;;21.92;;
41952;SDS011;63613;28.200;112.870;2023-12-20T04:39:47;31.13;;;21.00;;
41952;SDS011;63613;28.200;112.870;2023-12-20T04:42:55;19.23;;;12.02;;
41952;SDS011;63613;28.200;112.870;2023-12-20T04:45:24;18.10;;;10.25;;
41952;SDS011;63613;28.200;112.870;2023-12-20T04:47:53;19.40;;;11.55;;
41952;SDS011;63613;28.200;112.870;2023-12-20T04:50:22;19.17;;;11.20;;
41952;SDS011;63613;28.200;112.870;2023-12-20T04:52:52;16.58;;;11.18;;
41952;SDS011;63613;28.200;112.870;2023-12-20T04:55:22;23.23;;;11.15;;
41952;SDS011;63613;28.200;112.870;2023-12-20T04:57:51;20.75;;;10.18;;
41952;SDS011;63613;28.200;112.870;2023-12-20T05:00:21;19.83;;;11.15;;
41952;SDS011;63613;28.200;112.870;2023-12-20T05:02:50;16.77;;;10.88;;
41952;SDS011;63613;28.200;112.870;2023-12-20T05:05:20;19.80;;;11.20;;
41952;SDS011;63613;28.200;112.870;2023-12-20T05:07:50;18.98;;;10.82;;
41952;SDS011;63613;28.200;112.870;2023-12-20T05:10:20;17.77;;;10.98;;
41952;SDS011;63613;28.200;112.870;2023-12-20T05:12:49;19.10;;;11.25;;
41952;SDS011;63613;28.200;112.870;2023-12-20T05:15:18;21.55;;;11.30;;
41952;SDS011;63613;28.200;112.870;2023-12-20T05:17:49;20.50;;;12.35;;
41952;SDS011;63613;28.200;112.870;2023-12-20T05:20:18;18.65;;;11.90;;
41952;SDS011;63613;28.200;112.870;2023-12-20T05:22:47;21.23;;;13.07;;
41952;SDS011;63613;28.200;112.870;2023-12-20T05:25:17;23.60;;;15.15;;
41952;SDS011;63613;28.200;112.870;2023-12-20T05:27:46;24.75;;;14.35;;
41952;SDS011;63613;28.200;112.870;2023-12-20T05:30:17;26.45;;;15.55;;
41952;SDS011;63613;28.200;112.870;2023-12-20T05:32:47;25.83;;;15.70;;
41952;SDS011;63613;28.200;112.870;2023-12-20T05:35:17;26.25;;;17.55;;
41952;SDS011;63613;28.200;112.870;2023-12-20T05:37:50;27.27;;;16.05;;
41952;SDS011;63613;28.200;112.870;2023-12-20T05:40:21;28.85;;;16.88;;
41952;SDS011;63613;28.200;112.870;2023-12-20T05:42:50;26.58;;;16.23;;
41952;SDS011;63613;28.200;112.870;2023-12-20T05:45:19;27.13;;;16.40;;
41952;SDS011;63613;28.200;112.870;2023-12-20T05:47:48;31.63;;;17.38;;
41952;SDS011;63613;28.200;112.870;2023-12-20T05:50:37;37.78;;;18.33;;
41952;SDS011;63613;28.200;112.870;2023-12-20T05:53:07;25.65;;;15.88;;
41952;SDS011;63613;28.200;112.870;2023-12-20T05:55:36;24.98;;;16.70;;
41952;SDS011;63613;28.200;112.870;2023-12-20T05:58:06;27.73;;;15.65;;
41952;SDS011;63613;28.200;112.870;2023-12-20T06:00:35;26.65;;;15.50;;
41952;SDS011;63613;28.200;112.870;2023-12-20T06:03:05;28.90;;;15.63;;
41952;SDS011;63613;28.200;112.870;2023-12-20T06:05:34;27.13;;;15.65;;
41952;SDS011;63613;28.200;112.870;2023-12-20T06:08:04;28.42;;;16.45;;
41952;SDS011;63613;28.200;112.870;2023-12-20T06:10:34;23.15;;;14.93;;
41952;SDS011;63613;28.200;112.870;2023-12-20T06:13:03;24.00;;;14.68;;
41952;SDS011;63613;28.200;112.870;2023-12-20T06:15:33;25.13;;;15.50;;
41952;SDS011;63613;28.200;112.870;2023-12-20T06:18:02;24.35;;;14.57;;
41952;SDS011;63613;28.200;112.870;2023-12-20T06:20:32;23.58;;;15.43;;
41952;SDS011;63613;28.200;112.870;2023-12-20T06:23:01;26.67;;;16.35;;
41952;SDS011;63613;28.200;112.870;2023-12-20T06:25:30;23.20;;;15.15;;
41952;SDS011;63613;28.200;112.870;2023-12-20T06:28:01;26.80;;;16.52;;
41952;SDS011;63613;28.200;112.870;2023-12-20T06:30:30;24.58;;;15.15;;
41952;SDS011;63613;28.200;112.870;2023-12-20T06:33:00;22.98;;;16.77;;
41952;SDS011;63613;28.200;112.870;2023-12-20T06:35:29;24.05;;;15.85;;
41952;SDS011;63613;28.200;112.870;2023-12-20T06:37:58;25.77;;;16.15;;
41952;SDS011;63613;28.200;112.870;2023-12-20T06:40:29;23.35;;;15.70;;
41952;SDS011;63613;28.200;112.870;2023-12-20T06:42:58;28.48;;;15.93;;
41952;SDS011;63613;28.200;112.870;2023-12-20T06:45:27;25.27;;;15.90;;
41952;SDS011;63613;28.200;112.870;2023-12-20T06:47:56;29.15;;;16.88;;
41952;SDS011;63613;28.200;112.870;2023-12-20T06:50:26;25.15;;;15.68;;
41952;SDS011;63613;28.200;112.870;2023-12-20T06:52:56;24.67;;;15.23;;
41952;SDS011;63613;28.200;112.870;2023-12-20T06:55:26;23.63;;;15.23;;
41952;SDS011;63613;28.200;112.870;2023-12-20T06:57:57;23.58;;;14.38;;
41952;SDS011;63613;28.200;112.870;2023-12-20T07:00:26;26.52;;;15.38;;
41952;SDS011;63613;28.200;112.870;2023-12-20T07:02:56;23.05;;;14.52;;
41952;SDS011;63613;28.200;112.870;2023-12-20T07:05:27;25.00;;;15.18;;
41952;SDS011;63613;28.200;112.870;2023-12-20T07:07:57;24.33;;;15.05;;
41952;SDS011;63613;28.200;112.870;2023-12-20T07:11:03;24.38;;;15.70;;
41952;SDS011;63613;28.200;112.870;2023-12-20T07:13:33;23.88;;;15.48;;
41952;SDS011;63613;28.200;112.870;2023-12-20T07:16:03;21.95;;;14.15;;
41952;SDS011;63613;28.200;112.870;2023-12-20T07:18:32;21.85;;;14.52;;
41952;SDS011;63613;28.200;112.870;2023-12-20T07:21:02;24.33;;;14.85;;
41952;SDS011;63613;28.200;112.870;2023-12-20T07:23:31;23.33;;;14.07;;
41952;SDS011;63613;28.200;112.870;2023-12-20T07:26:01;21.55;;;14.38;;
41952;SDS011;63613;28.200;112.870;2023-12-20T07:28:30;22.00;;;15.18;;
41952;SDS011;63613;28.200;112.870;2023-12-20T07:30:59;24.58;;;15.55;;
41952;SDS011;63613;28.200;112.870;2023-12-20T07:33:29;22.80;;;15.40;;
41952;SDS011;63613;28.200;112.870;2023-12-20T07:35:59;22.33;;;15.10;;
41952;SDS011;63613;28.200;112.870;2023-12-20T07:38:29;19.95;;;13.68;;
41952;SDS011;63613;28.200;112.870;2023-12-20T07:40:58;22.70;;;14.30;;
41952;SDS011;63613;28.200;112.870;2023-12-20T07:43:27;23.85;;;15.13;;
41952;SDS011;63613;28.200;112.870;2023-12-20T07:45:57;23.25;;;15.75;;
41952;SDS011;63613;28.200;112.870;2023-12-20T07:48:32;25.40;;;16.67;;
41952;SDS011;63613;28.200;112.870;2023-12-20T07:51:02;25.35;;;16.88;;
41952;SDS011;63613;28.200;112.870;2023-12-20T07:53:34;24.40;;;14.90;;
41952;SDS011;63613;28.200;112.870;2023-12-20T07:56:13;23.27;;;16.38;;
41952;SDS011;63613;28.200;112.870;2023-12-20T07:58:44;22.90;;;15.48;;
41952;SDS011;63613;28.200;112.870;2023-12-20T08:01:15;23.65;;;15.95;;
41952;SDS011;63613;28.200;112.870;2023-12-20T08:03:45;21.25;;;14.10;;
41952;SDS011;63613;28.200;112.870;2023-12-20T08:06:15;26.02;;;16.13;;
41952;SDS011;63613;28.200;112.870;2023-12-20T08:09:05;20.60;;;14.13;;
41952;SDS011;63613;28.200;112.870;2023-12-20T08:11:34;22.65;;;14.93;;
41952;SDS011;63613;28.200;112.870;2023-12-20T08:14:03;22.35;;;14.48;;
41952;SDS011;63613;28.200;112.870;2023-12-20T08:16:33;21.30;;;14.07;;
41952;SDS011;63613;28.200;112.870;2023-12-20T08:19:02;23.70;;;15.10;;
41952;SDS011;63613;28.200;112.870;2023-12-20T08:21:31;23.35;;;15.13;;
41952;SDS011;63613;28.200;112.870;2023-12-20T08:24:01;23.23;;;15.73;;
41952;SDS011;63613;28.200;112.870;2023-12-20T08:26:30;26.00;;;15.98;;
41952;SDS011;63613;28.200;112.870;2023-12-20T08:28:59;23.10;;;15.20;;
41952;SDS011;63613;28.200;112.870;2023-12-20T08:31:29;24.90;;;15.60;;
41952;SDS011;63613;28.200;112.870;2023-12-20T08:33:59;20.88;;;15.20;;
41952;SDS011;63613;28.200;112.870;2023-12-20T08:36:29;22.55;;;14.45;;
41952;SDS011;63613;28.200;112.870;2023-12-20T08:38:58;25.77;;;15.75;;
41952;SDS011;63613;28.200;112.870;2023-12-20T08:41:27;28.73;;;16.70;;
41952;SDS011;63613;28.200;112.870;2023-12-20T08:43:57;22.60;;;14.02;;
41952;SDS011;63613;28.200;112.870;2023-12-20T08:46:26;22.92;;;15.80;;
41952;SDS011;63613;28.200;112.870;2023-12-20T08:48:55;24.75;;;15.48;;
41952;SDS011;63613;28.200;112.870;2023-12-20T08:51:43;23.95;;;16.00;;
41952;SDS011;63613;28.200;112.870;2023-12-20T08:54:12;23.55;;;14.20;;
41952;SDS011;63613;28.200;112.870;2023-12-20T08:56:45;25.25;;;15.88;;
41952;SDS011;63613;28.200;112.870;2023-12-20T08:59:14;22.92;;;15.77;;
41952;SDS011;63613;28.200;112.870;2023-12-20T09:01:44;27.90;;;15.82;;
41952;SDS011;63613;28.200;112.870;2023-12-20T09:04:20;25.92;;;15.57;;
41952;SDS011;63613;28.200;112.870;2023-12-20T09:06:52;23.08;;;15.48;;
41952;SDS011;63613;28.200;112.870;2023-12-20T09:09:21;23.17;;;15.43;;
41952;SDS011;63613;28.200;112.870;2023-12-20T09:11:50;24.25;;;15.13;;
41952;SDS011;63613;28.200;112.870;2023-12-20T09:14:20;20.15;;;14.00;;
41952;SDS011;63613;28.200;112.870;2023-12-20T09:16:49;23.33;;;15.02;;
41952;SDS011;63613;28.200;112.870;2023-12-20T09:19:21;23.35;;;15.50;;
41952;SDS011;63613;28.200;112.870;2023-12-20T09:21:50;23.05;;;14.68;;
41952;SDS011;63613;28.200;112.870;2023-12-20T09:24:19;26.15;;;16.15;;
41952;SDS011;63613;28.200;112.870;2023-12-20T09:26:48;23.95;;;15.30;;
41952;SDS011;63613;28.200;112.870;2023-12-20T09:29:17;22.98;;;15.63;;
41952;SDS011;63613;28.200;112.870;2023-12-20T09:31:50;21.85;;;15.15;;
41952;SDS011;63613;28.200;112.870;2023-12-20T09:34:19;23.55;;;14.40;;
41952;SDS011;63613;28.200;112.870;2023-12-20T09:36:48;21.75;;;15.00;;
41952;SDS011;63613;28.200;112.870;2023-12-20T09:39:18;21.08;;;14.40;;
41952;SDS011;63613;28.200;112.870;2023-12-20T09:42:00;20.70;;;13.82;;
41952;SDS011;63613;28.200;112.870;2023-12-20T09:44:32;20.67;;;13.20;;
41952;SDS011;63613;28.200;112.870;2023-12-20T09:47:05;21.35;;;12.80;;
41952;SDS011;63613;28.200;112.870;2023-12-20T09:49:35;19.23;;;13.55;;
41952;SDS011;63613;28.200;112.870;2023-12-20T09:52:06;19.92;;;12.90;;
41952;SDS011;63613;28.200;112.870;2023-12-20T09:54:36;25.70;;;14.02;;
41952;SDS011;63613;28.200;112.870;2023-12-20T09:57:07;21.83;;;14.20;;
41952;SDS011;63613;28.200;112.870;2023-12-20T09:59:36;22.92;;;14.73;;
41952;SDS011;63613;28.200;112.870;2023-12-20T10:02:05;24.25;;;14.55;;
41952;SDS011;63613;28.200;112.870;2023-12-20T10:04:44;25.45;;;15.38;;
41952;SDS011;63613;28.200;112.870;2023-12-20T10:07:34;27.92;;;15.43;;
41952;SDS011;63613;28.200;112.870;2023-12-20T10:10:04;25.75;;;16.55;;
41952;SDS011;63613;28.200;112.870;2023-12-20T10:12:36;25.05;;;15.80;;
41952;SDS011;63613;28.200;112.870;2023-12-20T10:15:06;26.38;;;15.35;;
41952;SDS011;63613;28.200;112.870;2023-12-20T10:17:36;21.98;;;14.60;;
41952;SDS011;63613;28.200;112.870;2023-12-20T10:20:05;28.95;;;16.08;;
41952;SDS011;63613;28.200;112.870;2023-12-20T10:22:36;23.75;;;15.88;;
41952;SDS011;63613;28.200;112.870;2023-12-20T10:25:06;27.40;;;15.82;;
41952;SDS011;63613;28.200;112.870;2023-12-20T10:27:37;25.80;;;16.15;;
41952;SDS011;63613;28.200;112.870;2023-12-20T10:30:07;24.42;;;15.73;;
41952;SDS011;63613;28.200;112.870;2023-12-20T10:32:37;25.40;;;15.30;;
41952;SDS011;63613;28.200;112.870;2023-12-20T10:35:44;27.58;;;16.63;;
41952;SDS011;63613;28.200;112.870;2023-12-20T10:38:14;28.17;;;17.20;;
41952;SDS011;63613;28.200;112.870;2023-12-20T10:40:45;27.23;;;16.40;;
41952;SDS011;63613;28.200;112.870;2023-12-20T10:43:15;27.48;;;15.75;;
41952;SDS011;63613;28.200;112.870;2023-12-20T10:45:44;27.55;;;16.23;;
41952;SDS011;63613;28.200;112.870;2023-12-20T10:48:33;26.75;;;16.40;;
41952;SDS011;63613;28.200;112.870;2023-12-20T10:51:04;23.98;;;15.50;;
41952;SDS011;63613;28.200;112.870;2023-12-20T10:53:35;24.27;;;16.17;;
41952;SDS011;63613;28.200;112.870;2023-12-20T10:56:07;23.55;;;15.68;;
41952;SDS011;63613;28.200;112.870;2023-12-20T10:58:38;24.55;;;15.45;;
41952;SDS011;63613;28.200;112.870;2023-12-20T11:01:09;28.85;;;17.20;;
41952;SDS011;63613;28.200;112.870;2023-12-20T11:03:43;25.02;;;15.63;;
41952;SDS011;63613;28.200;112.870;2023-12-20T11:06:40;25.75;;;16.10;;
41952;SDS011;63613;28.200;112.870;2023-12-20T11:09:21;27.08;;;16.35;;
41952;SDS011;63613;28.200;112.870;2023-12-20T11:11:59;24.65;;;15.15;;
41952;SDS011;63613;28.200;112.870;2023-12-20T11:14:52;25.25;;;15.23;;
41952;SDS011;63613;28.200;112.870;2023-12-20T11:17:25;23.20;;;14.50;;
41952;SDS011;63613;28.200;112.870;2023-12-20T11:20:03;25.30;;;16.58;;
41952;SDS011;63613;28.200;112.870;2023-12-20T11:22:36;25.33;;;16.20;;
41952;SDS011;63613;28.200;112.870;2023-12-20T11:25:08;25.35;;;15.60;;
41952;SDS011;63613;28.200;112.870;2023-12-20T11:27:41;27.10;;;17.17;;
41952;SDS011;63613;28.200;112.870;2023-12-20T11:30:11;25.70;;;15.63;;
41952;SDS011;63613;28.200;112.870;2023-12-20T11:32:45;25.05;;;15.10;;
41952;SDS011;63613;28.200;112.870;2023-12-20T11:35:17;25.35;;;15.50;;
41952;SDS011;63613;28.200;112.870;2023-12-20T11:37:48;24.42;;;15.60;;
41952;SDS011;63613;28.200;112.870;2023-12-20T11:40:18;25.33;;;16.02;;
41952;SDS011;63613;28.200;112.870;2023-12-20T11:42:49;29.30;;;18.42;;
41952;SDS011;63613;28.200;112.870;2023-12-20T11:45:20;23.83;;;15.48;;
41952;SDS011;63613;28.200;112.870;2023-12-20T11:48:14;24.40;;;16.52;;
41952;SDS011;63613;28.200;112.870;2023-12-20T11:50:47;27.60;;;16.00;;
41952;SDS011;63613;28.200;112.870;2023-12-20T11:53:53;24.98;;;15.63;;
41952;SDS011;63613;28.200;112.870;2023-12-20T11:56:22;22.77;;;14.82;;
41952;SDS011;63613;28.200;112.870;2023-12-20T11:58:53;23.20;;;14.90;;
41952;SDS011;63613;28.200;112.870;2023-12-20T12:01:24;23.33;;;14.85;;
41952;SDS011;63613;28.200;112.870;2023-12-20T12:04:04;25.83;;;16.77;;
41952;SDS011;63613;28.200;112.870;2023-12-20T12:06:34;23.38;;;14.52;;
41952;SDS011;63613;28.200;112.870;2023-12-20T12:09:05;23.10;;;15.52;;
41952;SDS011;63613;28.200;112.870;2023-12-20T12:11:34;23.60;;;15.15;;
41952;SDS011;63613;28.200;112.870;2023-12-20T12:14:03;24.52;;;15.98;;
41952;SDS011;63613;28.200;112.870;2023-12-20T12:16:36;24.27;;;15.10;;
41952;SDS011;63613;28.200;112.870;2023-12-20T12:19:27;26.80;;;15.65;;
41952;SDS011;63613;28.200;112.870;2023-12-20T12:22:09;27.25;;;16.55;;
41952;SDS011;63613;28.200;112.870;2023-12-20T12:24:46;25.35;;;15.52;;
41952;SDS011;63613;28.200;112.870;2023-12-20T12:27:15;25.50;;;15.93;;
41952;SDS011;63613;28.200;112.870;2023-12-20T12:30:05;29.40;;;16.17;;
41952;SDS011;63613;28.200;112.870;2023-12-20T12:32:40;29.67;;;16.38;;
41952;SDS011;63613;28.200;112.870;2023-12-20T12:35:09;27.70;;;18.60;;
41952;SDS011;63613;28.200;112.870;2023-12-20T12:37:39;30.80;;;17.85;;
41952;SDS011;63613;28.200;112.870;2023-12-20T12:40:09;25.38;;;17.17;;
41952;SDS011;63613;28.200;112.870;2023-12-20T12:42:44;25.60;;;16.77;;
41952;SDS011;63613;28.200;112.870;2023-12-20T12:45:18;27.02;;;16.70;;
41952;SDS011;63613;28.200;112.870;2023-12-20T12:47:47;30.77;;;18.70;;
41952;SDS011;63613;28.200;112.870;2023-12-20T12:50:54;24.95;;;15.98;;
41952;SDS011;63613;28.200;112.870;2023-12-20T12:53:30;29.00;;;17.85;;
41952;SDS011;63613;28.200;112.870;2023-12-20T12:55:59;27.73;;;18.50;;
41952;SDS011;63613;28.200;112.870;2023-12-20T12:58:28;27.70;;;17.38;;
41952;SDS011;63613;28.200;112.870;2023-12-20T13:01:16;28.35;;;17.42;;
41952;SDS011;63613;28.200;112.870;2023-12-20T13:03:48;28.20;;;17.13;;
41952;SDS011;63613;28.200;112.870;2023-12-20T13:06:17;28.58;;;18.98;;
41952;SDS011;63613;28.200;112.870;2023-12-20T13:08:48;31.58;;;18.08;;
41952;SDS011;63613;28.200;112.870;2023-12-20T13:11:24;31.70;;;19.63;;
41952;SDS011;63613;28.200;112.870;2023-12-20T13:14:02;29.17;;;18.98;;
41952;SDS011;63613;28.200;112.870;2023-12-20T13:16:32;31.90;;;20.27;;
41952;SDS011;63613;28.200;112.870;2023-12-20T13:19:04;31.80;;;20.35;;
41952;SDS011;63613;28.200;112.870;2023-12-20T13:21:36;32.20;;;19.77;;
41952;SDS011;63613;28.200;112.870;2023-12-20T13:24:07;30.92;;;18.95;;
41952;SDS011;63613;28.200;112.870;2023-12-20T13:26:36;34.00;;;20.85;;
41952;SDS011;63613;28.200;112.870;2023-12-20T13:29:07;33.80;;;21.27;;
41952;SDS011;63613;28.200;112.870;2023-12-20T13:31:37;29.80;;;20.05;;
41952;SDS011;63613;28.200;112.870;2023-12-20T13:34:06;38.58;;;21.73;;
41952;SDS011;63613;28.200;112.870;2023-12-20T13:36:39;35.78;;;22.35;;
41952;SDS011;63613;28.200;112.870;2023-12-20T13:39:08;31.90;;;19.42;;
41952;SDS011;63613;28.200;112.870;2023-12-20T13:41:37;37.05;;;22.55;;
41952;SDS011;63613;28.200;112.870;2023-12-20T13:44:13;34.22;;;21.42;;
41952;SDS011;63613;28.200;112.870;2023-12-20T13:46:42;35.50;;;21.67;;
41952;SDS011;63613;28.200;112.870;2023-12-20T13:49:12;36.10;;;22.02;;
41952;SDS011;63613;28.200;112.870;2023-12-20T13:51:41;37.20;;;21.55;;
41952;SDS011;63613;28.200;112.870;2023-12-20T13:54:10;35.97;;;21.90;;
41952;SDS011;63613;28.200;112.870;2023-12-20T13:56:40;32.60;;;21.30;;
41952;SDS011;63613;28.200;112.870;2023-12-20T13:59:11;38.13;;;23.95;;
41952;SDS011;63613;28.200;112.870;2023-12-20T14:01:41;34.33;;;22.55;;
41952;SDS011;63613;28.200;112.870;2023-12-20T14:04:10;39.15;;;24.25;;
41952;SDS011;63613;28.200;112.870;2023-12-20T14:06:39;38.80;;;23.58;;
41952;SDS011;63613;28.200;112.870;2023-12-20T14:09:09;36.55;;;22.80;;
41952;SDS011;63613;28.200;112.870;2023-12-20T14:11:40;43.40;;;25.25;;
41952;SDS011;63613;28.200;112.870;2023-12-20T14:14:09;43.15;;;26.08;;
41952;SDS011;63613;28.200;112.870;2023-12-20T14:16:40;39.88;;;24.92;;
41952;SDS011;63613;28.200;112.870;2023-12-20T14:19:11;43.15;;;27.08;;
41952;SDS011;63613;28.200;112.870;2023-12-20T14:21:41;42.45;;;24.98;;
41952;SDS011;63613;28.200;112.870;2023-12-20T14:24:13;43.42;;;25.52;;
41952;SDS011;63613;28.200;112.870;2023-12-20T14:26:42;42.43;;;25.93;;
41952;SDS011;63613;28.200;112.870;2023-12-20T14:29:11;45.00;;;27.80;;